sensor_id;sensor_type;location;lat;lon;timestamp;pressure;altitude;pressure_sealevel;temperature;humidity
77360;BME280;66426;51.454;7.266;2023-08-17T00:00:26;100447.22;;;17.71;100.00
77360;BME280;66426;51.454;7.266;2023-08-17T00:01:27;100448.84;;;17.73;100.00
77360;BME280;66426;51.454;7.266;2023-08-17T00:02:27;100443.09;;;17.65;100.00
77360;BME280;66426;51.454;7.266;2023-08-17T00:03:28;100435.56;;;17.68;100.00
77360;BME280;66426;51.454;7.266;2023-08-17T00:04:29;100438.97;;;17.59;100.00
77360;BME280;66426;51.454;7.266;2023-08-17T00:05:30;100446.03;;;17.62;100.00
77360;BME280;66426;51.454;7.266;2023-08-17T00:06:33;100450.47;;;17.76;100.00
77360;BME280;66426;51.454;7.266;2023-08-17T00:07:34;100450.31;;;17.90;100.00
77360;BME280;66426;51.454;7.266;2023-08-17T00:08:34;100448.31;;;17.92;100.00
77360;BME280;66426;51.454;7.266;2023-08-17T00:09:37;100450.66;;;17.85;100.00
77360;BME280;66426;51.454;7.266;2023-08-17T00:10:37;100452.09;;;17.78;100.00
77360;BME280;66426;51.454;7.266;2023-08-17T00:11:39;100451.78;;;17.94;100.00
77360;BME280;66426;51.454;7.266;2023-08-17T00:12:39;100457.72;;;17.88;100.00
77360;BME280;66426;51.454;7.266;2023-08-17T00:13:40;100454.28;;;17.73;100.00
77360;BME280;66426;51.454;7.266;2023-08-17T00:14:41;100457.53;;;17.78;100.00
77360;BME280;66426;51.454;7.266;2023-08-17T00:15:42;100454.66;;;17.93;100.00
77360;BME280;66426;51.454;7.266;2023-08-17T00:16:45;100456.50;;;17.92;100.00
77360;BME280;66426;51.454;7.266;2023-08-17T00:17:46;100458.63;;;17.76;100.00
77360;BME280;66426;51.454;7.266;2023-08-17T00:18:47;100464.66;;;17.68;100.00
77360;BME280;66426;51.454;7.266;2023-08-17T00:19:48;100460.94;;;17.69;100.00
77360;BME280;66426;51.454;7.266;2023-08-17T00:20:50;100451.50;;;17.62;100.00
77360;BME280;66426;51.454;7.266;2023-08-17T00:21:51;100458.75;;;17.74;100.00
77360;BME280;66426;51.454;7.266;2023-08-17T00:22:53;100453.72;;;17.81;100.00
77360;BME280;66426;51.454;7.266;2023-08-17T00:23:53;100449.28;;;17.67;100.00
77360;BME280;66426;51.454;7.266;2023-08-17T00:24:55;100459.69;;;17.86;100.00
77360;BME280;66426;51.454;7.266;2023-08-17T00:25:56;100448.66;;;17.63;100.00
77360;BME280;66426;51.454;7.266;2023-08-17T00:26:57;100457.41;;;17.56;100.00
77360;BME280;66426;51.454;7.266;2023-08-17T00:27:57;100454.16;;;17.51;100.00
77360;BME280;66426;51.454;7.266;2023-08-17T00:28:58;100453.59;;;17.58;100.00
77360;BME280;66426;51.454;7.266;2023-08-17T00:29:59;100454.59;;;17.57;100.00
77360;BME280;66426;51.454;7.266;2023-08-17T00:31:00;100451.44;;;17.51;100.00
77360;BME280;66426;51.454;7.266;2023-08-17T00:32:01;100454.28;;;17.49;100.00
77360;BME280;66426;51.454;7.266;2023-08-17T00:33:01;100451.91;;;17.68;100.00
77360;BME280;66426;51.454;7.266;2023-08-17T00:34:02;100449.41;;;17.65;100.00
77360;BME280;66426;51.454;7.266;2023-08-17T00:35:04;100450.75;;;17.60;100.00
77360;BME280;66426;51.454;7.266;2023-08-17T00:36:04;100447.72;;;17.52;100.00
77360;BME280;66426;51.454;7.266;2023-08-17T00:37:05;100452.31;;;17.51;100.00
77360;BME280;66426;51.454;7.266;2023-08-17T00:38:06;100448.56;;;17.65;100.00
77360;BME280;66426;51.454;7.266;2023-08-17T00:39:07;100449.13;;;17.57;100.00
77360;BME280;66426;51.454;7.266;2023-08-17T00:40:09;100445.13;;;17.50;100.00
77360;BME280;66426;51.454;7.266;2023-08-17T00:41:10;100449.28;;;17.67;100.00
77360;BME280;66426;51.454;7.266;2023-08-17T00:42:11;100439.03;;;17.71;100.00
77360;BME280;66426;51.454;7.266;2023-08-17T00:43:11;100442.28;;;17.52;100.00
77360;BME280;66426;51.454;7.266;2023-08-17T00:44:12;100443.69;;;17.57;100.00
77360;BME280;66426;51.454;7.266;2023-08-17T00:45:13;100444.03;;;17.53;100.00
77360;BME280;66426;51.454;7.266;2023-08-17T00:46:14;100452.59;;;17.59;100.00
77360;BME280;66426;51.454;7.266;2023-08-17T00:47:14;100448.44;;;17.42;100.00
77360;BME280;66426;51.454;7.266;2023-08-17T00:48:15;100452.31;;;17.51;100.00
77360;BME280;66426;51.454;7.266;2023-08-17T00:49:16;100442.94;;;17.55;100.00
77360;BME280;66426;51.454;7.266;2023-08-17T00:50:17;100447.13;;;17.59;100.00
77360;BME280;66426;51.454;7.266;2023-08-17T00:51:17;100441.81;;;17.58;100.00
77360;BME280;66426;51.454;7.266;2023-08-17T00:52:21;100449.06;;;17.70;100.00
77360;BME280;66426;51.454;7.266;2023-08-17T00:53:21;100445.69;;;17.66;100.00
77360;BME280;66426;51.454;7.266;2023-08-17T00:54:24;100433.28;;;17.38;100.00
77360;BME280;66426;51.454;7.266;2023-08-17T00:55:26;100442.28;;;17.52;100.00
77360;BME280;66426;51.454;7.266;2023-08-17T00:56:27;100438.34;;;17.19;100.00
77360;BME280;66426;51.454;7.266;2023-08-17T00:57:28;100438.84;;;17.37;100.00
77360;BME280;66426;51.454;7.266;2023-08-17T00:58:29;100446.28;;;17.35;100.00
77360;BME280;66426;51.454;7.266;2023-08-17T00:59:29;100446.03;;;17.38;100.00
77360;BME280;66426;51.454;7.266;2023-08-17T01:00:30;100448.78;;;17.38;100.00
77360;BME280;66426;51.454;7.266;2023-08-17T01:01:31;100454.75;;;17.43;100.00
77360;BME280;66426;51.454;7.266;2023-08-17T01:02:32;100455.56;;;17.56;100.00
77360;BME280;66426;51.454;7.266;2023-08-17T01:03:33;100455.09;;;17.62;100.00
77360;BME280;66426;51.454;7.266;2023-08-17T01:04:35;100451.09;;;17.55;100.00
77360;BME280;66426;51.454;7.266;2023-08-17T01:05:35;100456.22;;;17.47;100.00
77360;BME280;66426;51.454;7.266;2023-08-17T01:06:38;100451.69;;;17.48;100.00
77360;BME280;66426;51.454;7.266;2023-08-17T01:07:38;100452.88;;;17.43;100.00
77360;BME280;66426;51.454;7.266;2023-08-17T01:08:39;100461.47;;;17.50;100.00
77360;BME280;66426;51.454;7.266;2023-08-17T01:09:40;100452.97;;;17.55;100.00
77360;BME280;66426;51.454;7.266;2023-08-17T01:10:44;100453.41;;;17.49;100.00
77360;BME280;66426;51.454;7.266;2023-08-17T01:11:49;100452.50;;;17.24;100.00
77360;BME280;66426;51.454;7.266;2023-08-17T01:12:56;100450.78;;;17.23;100.00
77360;BME280;66426;51.454;7.266;2023-08-17T01:14:00;100440.69;;;17.36;100.00
77360;BME280;66426;51.454;7.266;2023-08-17T01:15:04;100439.94;;;17.34;100.00
77360;BME280;66426;51.454;7.266;2023-08-17T01:16:05;100440.53;;;17.51;100.00
77360;BME280;66426;51.454;7.266;2023-08-17T01:17:10;100442.22;;;17.40;100.00
77360;BME280;66426;51.454;7.266;2023-08-17T01:18:15;100439.13;;;17.21;100.00
77360;BME280;66426;51.454;7.266;2023-08-17T01:19:18;100429.75;;;17.25;100.00
77360;BME280;66426;51.454;7.266;2023-08-17T01:20:22;100425.03;;;17.40;100.00
77360;BME280;66426;51.454;7.266;2023-08-17T01:21:24;100431.66;;;17.36;100.00
77360;BME280;66426;51.454;7.266;2023-08-17T01:22:25;100434.34;;;17.49;100.00
77360;BME280;66426;51.454;7.266;2023-08-17T01:23:28;100431.16;;;17.55;100.00
77360;BME280;66426;51.454;7.266;2023-08-17T01:24:29;100430.22;;;17.43;100.00
77360;BME280;66426;51.454;7.266;2023-08-17T01:25:29;100434.84;;;17.54;100.00
77360;BME280;66426;51.454;7.266;2023-08-17T01:26:30;100431.44;;;17.39;100.00
77360;BME280;66426;51.454;7.266;2023-08-17T01:27:33;100432.16;;;17.17;100.00
77360;BME280;66426;51.454;7.266;2023-08-17T01:28:36;100425.97;;;17.39;100.00
77360;BME280;66426;51.454;7.266;2023-08-17T01:29:37;100430.84;;;17.22;100.00
77360;BME280;66426;51.454;7.266;2023-08-17T01:30:39;100431.38;;;17.28;100.00
77360;BME280;66426;51.454;7.266;2023-08-17T01:31:43;100432.34;;;17.27;100.00
77360;BME280;66426;51.454;7.266;2023-08-17T01:32:48;100428.13;;;17.22;100.00
77360;BME280;66426;51.454;7.266;2023-08-17T01:33:52;100429.75;;;17.25;100.00
77360;BME280;66426;51.454;7.266;2023-08-17T01:34:56;100431.00;;;17.32;100.00
77360;BME280;66426;51.454;7.266;2023-08-17T01:36:01;100431.63;;;17.12;100.00
77360;BME280;66426;51.454;7.266;2023-08-17T01:37:04;100424.78;;;17.06;100.00
77360;BME280;66426;51.454;7.266;2023-08-17T01:38:09;100419.16;;;17.33;100.00
77360;BME280;66426;51.454;7.266;2023-08-17T01:39:13;100418.22;;;17.45;100.00
77360;BME280;66426;51.454;7.266;2023-08-17T01:40:16;100421.47;;;17.51;100.00
77360;BME280;66426;51.454;7.266;2023-08-17T01:41:17;100409.78;;;17.24;100.00
77360;BME280;66426;51.454;7.266;2023-08-17T01:42:18;100413.13;;;17.04;100.00
77360;BME280;66426;51.454;7.266;2023-08-17T01:43:20;100404.00;;;17.05;100.00
77360;BME280;66426;51.454;7.266;2023-08-17T01:44:21;100403.56;;;16.98;100.00
77360;BME280;66426;51.454;7.266;2023-08-17T01:45:22;100405.50;;;17.09;100.00
77360;BME280;66426;51.454;7.266;2023-08-17T01:46:22;100400.66;;;17.25;100.00
77360;BME280;66426;51.454;7.266;2023-08-17T01:47:23;100398.91;;;17.24;100.00
77360;BME280;66426;51.454;7.266;2023-08-17T01:48:25;100396.94;;;17.27;100.00
77360;BME280;66426;51.454;7.266;2023-08-17T01:49:25;100396.88;;;17.15;100.00
77360;BME280;66426;51.454;7.266;2023-08-17T01:50:26;100388.25;;;17.21;100.00
77360;BME280;66426;51.454;7.266;2023-08-17T01:51:27;100387.09;;;17.13;100.00
77360;BME280;66426;51.454;7.266;2023-08-17T01:52:28;100385.09;;;17.28;100.00
77360;BME280;66426;51.454;7.266;2023-08-17T01:53:29;100393.78;;;17.33;100.00
77360;BME280;66426;51.454;7.266;2023-08-17T01:54:31;100389.44;;;17.30;100.00
77360;BME280;66426;51.454;7.266;2023-08-17T01:55:32;100397.88;;;17.38;100.00
77360;BME280;66426;51.454;7.266;2023-08-17T01:56:32;100393.56;;;17.47;100.00
77360;BME280;66426;51.454;7.266;2023-08-17T01:57:33;100396.88;;;17.39;100.00
77360;BME280;66426;51.454;7.266;2023-08-17T01:58:34;100399.41;;;17.42;100.00
77360;BME280;66426;51.454;7.266;2023-08-17T01:59:35;100401.63;;;17.24;100.00
77360;BME280;66426;51.454;7.266;2023-08-17T02:00:35;100400.31;;;17.30;100.00
77360;BME280;66426;51.454;7.266;2023-08-17T02:01:36;100403.69;;;17.34;100.00
77360;BME280;66426;51.454;7.266;2023-08-17T02:02:37;100402.88;;;17.20;100.00
77360;BME280;66426;51.454;7.266;2023-08-17T02:03:37;100399.84;;;17.36;100.00
77360;BME280;66426;51.454;7.266;2023-08-17T02:04:38;100398.56;;;17.29;100.00
77360;BME280;66426;51.454;7.266;2023-08-17T02:05:40;100395.31;;;17.24;100.00
77360;BME280;66426;51.454;7.266;2023-08-17T02:06:44;100395.59;;;17.08;100.00
77360;BME280;66426;51.454;7.266;2023-08-17T02:07:44;100391.72;;;17.23;100.00
77360;BME280;66426;51.454;7.266;2023-08-17T02:08:45;100388.50;;;17.18;100.00
77360;BME280;66426;51.454;7.266;2023-08-17T02:09:47;100390.41;;;17.05;100.00
77360;BME280;66426;51.454;7.266;2023-08-17T02:10:48;100387.97;;;17.13;100.00
77360;BME280;66426;51.454;7.266;2023-08-17T02:11:49;100395.22;;;17.25;100.00
77360;BME280;66426;51.454;7.266;2023-08-17T02:12:49;100392.69;;;17.35;100.00
77360;BME280;66426;51.454;7.266;2023-08-17T02:13:50;100400.38;;;17.17;100.00
77360;BME280;66426;51.454;7.266;2023-08-17T02:14:51;100397.59;;;17.30;100.00
77360;BME280;66426;51.454;7.266;2023-08-17T02:15:52;100395.56;;;17.21;100.00
77360;BME280;66426;51.454;7.266;2023-08-17T02:16:52;100393.41;;;17.13;100.00
77360;BME280;66426;51.454;7.266;2023-08-17T02:17:53;100384.38;;;17.13;100.00
77360;BME280;66426;51.454;7.266;2023-08-17T02:18:54;100391.53;;;17.14;100.00
77360;BME280;66426;51.454;7.266;2023-08-17T02:19:54;100385.75;;;17.18;100.00
77360;BME280;66426;51.454;7.266;2023-08-17T02:20:55;100395.22;;;17.25;100.00
77360;BME280;66426;51.454;7.266;2023-08-17T02:21:56;100383.66;;;17.22;100.00
77360;BME280;66426;51.454;7.266;2023-08-17T02:22:56;100382.94;;;17.20;100.00
77360;BME280;66426;51.454;7.266;2023-08-17T02:23:57;100377.13;;;17.24;100.00
77360;BME280;66426;51.454;7.266;2023-08-17T02:24:59;100379.84;;;17.24;100.00
77360;BME280;66426;51.454;7.266;2023-08-17T02:26:00;100384.16;;;17.40;100.00
77360;BME280;66426;51.454;7.266;2023-08-17T02:27:01;100384.44;;;17.24;100.00
77360;BME280;66426;51.454;7.266;2023-08-17T02:28:01;100380.16;;;17.33;100.00
77360;BME280;66426;51.454;7.266;2023-08-17T02:29:03;100384.66;;;17.21;100.00
77360;BME280;66426;51.454;7.266;2023-08-17T02:30:04;100380.88;;;17.11;100.00
77360;BME280;66426;51.454;7.266;2023-08-17T02:31:05;100381.19;;;17.19;100.00
77360;BME280;66426;51.454;7.266;2023-08-17T02:32:06;100377.63;;;17.30;100.00
77360;BME280;66426;51.454;7.266;2023-08-17T02:33:07;100381.03;;;17.33;100.00
77360;BME280;66426;51.454;7.266;2023-08-17T02:34:08;100379.63;;;17.28;100.00
77360;BME280;66426;51.454;7.266;2023-08-17T02:35:10;100375.56;;;17.33;100.00
77360;BME280;66426;51.454;7.266;2023-08-17T02:36:10;100381.25;;;17.30;100.00
77360;BME280;66426;51.454;7.266;2023-08-17T02:37:11;100379.75;;;17.26;100.00
77360;BME280;66426;51.454;7.266;2023-08-17T02:38:12;100372.44;;;17.27;100.00
77360;BME280;66426;51.454;7.266;2023-08-17T02:39:13;100378.34;;;17.20;100.00
77360;BME280;66426;51.454;7.266;2023-08-17T02:40:15;100375.72;;;17.19;100.00
77360;BME280;66426;51.454;7.266;2023-08-17T02:41:16;100372.91;;;17.20;100.00
77360;BME280;66426;51.454;7.266;2023-08-17T02:42:16;100375.50;;;17.22;100.00
77360;BME280;66426;51.454;7.266;2023-08-17T02:43:17;100384.19;;;17.27;100.00
77360;BME280;66426;51.454;7.266;2023-08-17T02:44:18;100382.28;;;17.16;100.00
77360;BME280;66426;51.454;7.266;2023-08-17T02:45:18;100380.38;;;17.30;100.00
77360;BME280;66426;51.454;7.266;2023-08-17T02:46:19;100381.38;;;17.29;100.00
77360;BME280;66426;51.454;7.266;2023-08-17T02:47:20;100388.91;;;17.25;100.00
77360;BME280;66426;51.454;7.266;2023-08-17T02:48:20;100389.88;;;17.24;100.00
77360;BME280;66426;51.454;7.266;2023-08-17T02:49:21;100385.88;;;17.17;100.00
77360;BME280;66426;51.454;7.266;2023-08-17T02:50:22;100394.78;;;16.95;100.00
77360;BME280;66426;51.454;7.266;2023-08-17T02:51:23;100388.56;;;16.93;100.00
77360;BME280;66426;51.454;7.266;2023-08-17T02:52:23;100389.09;;;16.98;100.00
77360;BME280;66426;51.454;7.266;2023-08-17T02:53:24;100394.94;;;17.04;100.00
77360;BME280;66426;51.454;7.266;2023-08-17T02:54:25;100392.41;;;17.14;100.00
77360;BME280;66426;51.454;7.266;2023-08-17T02:55:27;100397.84;;;17.14;100.00
77360;BME280;66426;51.454;7.266;2023-08-17T02:56:27;100391.97;;;17.20;100.00
77360;BME280;66426;51.454;7.266;2023-08-17T02:57:28;100394.56;;;17.22;100.00
77360;BME280;66426;51.454;7.266;2023-08-17T02:58:29;100390.69;;;17.13;100.00
77360;BME280;66426;51.454;7.266;2023-08-17T02:59:30;100394.22;;;17.27;100.00
77360;BME280;66426;51.454;7.266;2023-08-17T03:00:30;100397.75;;;17.16;100.00
77360;BME280;66426;51.454;7.266;2023-08-17T03:01:31;100393.81;;;17.20;100.00
77360;BME280;66426;51.454;7.266;2023-08-17T03:02:32;100392.75;;;17.10;100.00
77360;BME280;66426;51.454;7.266;2023-08-17T03:03:33;100391.09;;;17.20;100.00
77360;BME280;66426;51.454;7.266;2023-08-17T03:04:34;100390.50;;;17.03;100.00
77360;BME280;66426;51.454;7.266;2023-08-17T03:05:35;100394.03;;;17.17;100.00
77360;BME280;66426;51.454;7.266;2023-08-17T03:06:35;100398.00;;;17.13;100.00
77360;BME280;66426;51.454;7.266;2023-08-17T03:07:36;100389.88;;;17.24;100.00
77360;BME280;66426;51.454;7.266;2023-08-17T03:08:37;100388.59;;;17.17;100.00
77360;BME280;66426;51.454;7.266;2023-08-17T03:09:37;100395.66;;;17.19;100.00
77360;BME280;66426;51.454;7.266;2023-08-17T03:10:39;100398.03;;;17.24;100.00
77360;BME280;66426;51.454;7.266;2023-08-17T03:11:40;100402.63;;;17.23;100.00
77360;BME280;66426;51.454;7.266;2023-08-17T03:12:41;100392.94;;;17.19;100.00
77360;BME280;66426;51.454;7.266;2023-08-17T03:13:41;100396.41;;;17.21;100.00
77360;BME280;66426;51.454;7.266;2023-08-17T03:14:42;100391.09;;;17.20;100.00
77360;BME280;66426;51.454;7.266;2023-08-17T03:15:43;100392.06;;;17.19;100.00
77360;BME280;66426;51.454;7.266;2023-08-17T03:16:44;100394.34;;;17.25;100.00
77360;BME280;66426;51.454;7.266;2023-08-17T03:17:44;100387.44;;;17.08;100.00
77360;BME280;66426;51.454;7.266;2023-08-17T03:18:45;100394.47;;;17.23;100.00
77360;BME280;66426;51.454;7.266;2023-08-17T03:19:46;100393.94;;;17.18;100.00
77360;BME280;66426;51.454;7.266;2023-08-17T03:20:46;100392.59;;;17.24;100.00
77360;BME280;66426;51.454;7.266;2023-08-17T03:21:47;100395.31;;;17.24;100.00
77360;BME280;66426;51.454;7.266;2023-08-17T03:22:48;100393.69;;;17.21;100.00
77360;BME280;66426;51.454;7.266;2023-08-17T03:23:49;100392.94;;;17.19;100.00
77360;BME280;66426;51.454;7.266;2023-08-17T03:24:49;100391.97;;;17.20;100.00
77360;BME280;66426;51.454;7.266;2023-08-17T03:25:52;100393.59;;;17.23;100.00
77360;BME280;66426;51.454;7.266;2023-08-17T03:26:53;100392.03;;;17.08;100.00
77360;BME280;66426;51.454;7.266;2023-08-17T03:27:54;100395.47;;;17.10;100.00
77360;BME280;66426;51.454;7.266;2023-08-17T03:28:54;100388.63;;;17.04;100.00
77360;BME280;66426;51.454;7.266;2023-08-17T03:29:55;100394.22;;;17.02;100.00
77360;BME280;66426;51.454;7.266;2023-08-17T03:30:56;100394.28;;;17.14;100.00
77360;BME280;66426;51.454;7.266;2023-08-17T03:31:57;100388.19;;;17.10;100.00
77360;BME280;66426;51.454;7.266;2023-08-17T03:32:57;100389.06;;;17.11;100.00
77360;BME280;66426;51.454;7.266;2023-08-17T03:33:58;100393.84;;;17.07;100.00
77360;BME280;66426;51.454;7.266;2023-08-17T03:35:00;100399.78;;;16.88;100.00
77360;BME280;66426;51.454;7.266;2023-08-17T03:36:01;100388.66;;;16.91;100.00
77360;BME280;66426;51.454;7.266;2023-08-17T03:37:03;100391.72;;;16.87;100.00
77360;BME280;66426;51.454;7.266;2023-08-17T03:38:04;100392.59;;;17.00;100.00
77360;BME280;66426;51.454;7.266;2023-08-17T03:39:04;100390.59;;;17.02;100.00
77360;BME280;66426;51.454;7.266;2023-08-17T03:40:06;100387.84;;;17.15;100.00
77360;BME280;66426;51.454;7.266;2023-08-17T03:41:08;100394.38;;;17.12;100.00
77360;BME280;66426;51.454;7.266;2023-08-17T03:42:08;100394.03;;;17.17;100.00
77360;BME280;66426;51.454;7.266;2023-08-17T03:43:09;100393.50;;;17.12;100.00
77360;BME280;66426;51.454;7.266;2023-08-17T03:44:10;100399.63;;;17.15;100.00
77360;BME280;66426;51.454;7.266;2023-08-17T03:45:10;100393.94;;;17.18;100.00
77360;BME280;66426;51.454;7.266;2023-08-17T03:46:11;100394.50;;;17.11;100.00
77360;BME280;66426;51.454;7.266;2023-08-17T03:47:12;100392.13;;;17.06;100.00
77360;BME280;66426;51.454;7.266;2023-08-17T03:48:13;100392.16;;;16.93;100.00
77360;BME280;66426;51.454;7.266;2023-08-17T03:49:13;100391.25;;;17.06;100.00
77360;BME280;66426;51.454;7.266;2023-08-17T03:50:15;100387.19;;;17.11;100.00
77360;BME280;66426;51.454;7.266;2023-08-17T03:51:15;100389.59;;;17.16;100.00
77360;BME280;66426;51.454;7.266;2023-08-17T03:52:16;100390.78;;;17.12;100.00
77360;BME280;66426;51.454;7.266;2023-08-17T03:53:17;100380.03;;;17.10;100.00
77360;BME280;66426;51.454;7.266;2023-08-17T03:54:17;100382.03;;;16.95;100.00
77360;BME280;66426;51.454;7.266;2023-08-17T03:55:19;100382.91;;;16.96;100.00
77360;BME280;66426;51.454;7.266;2023-08-17T03:56:21;100384.59;;;17.10;100.00
77360;BME280;66426;51.454;7.266;2023-08-17T03:57:21;100382.75;;;17.10;100.00
77360;BME280;66426;51.454;7.266;2023-08-17T03:58:22;100387.03;;;16.89;100.00
77360;BME280;66426;51.454;7.266;2023-08-17T03:59:23;100383.44;;;17.01;100.00
77360;BME280;66426;51.454;7.266;2023-08-17T04:00:23;100382.38;;;16.91;100.00
77360;BME280;66426;51.454;7.266;2023-08-17T04:01:24;100388.41;;;17.07;100.00
77360;BME280;66426;51.454;7.266;2023-08-17T04:02:25;100383.31;;;17.02;100.00
77360;BME280;66426;51.454;7.266;2023-08-17T04:03:26;100388.00;;;17.00;100.00
77360;BME280;66426;51.454;7.266;2023-08-17T04:04:26;100389.91;;;17.11;100.00
77360;BME280;66426;51.454;7.266;2023-08-17T04:05:28;100382.03;;;16.95;100.00
77360;BME280;66426;51.454;7.266;2023-08-17T04:06:28;100390.59;;;17.02;100.00
77360;BME280;66426;51.454;7.266;2023-08-17T04:07:29;100389.88;;;16.87;100.00
77360;BME280;66426;51.454;7.266;2023-08-17T04:08:30;100393.69;;;16.85;100.00
77360;BME280;66426;51.454;7.266;2023-08-17T04:09:31;100388.38;;;16.83;100.00
77360;BME280;66426;51.454;7.266;2023-08-17T04:10:34;100391.13;;;17.07;100.00
77360;BME280;66426;51.454;7.266;2023-08-17T04:11:36;100386.66;;;17.06;100.00
77360;BME280;66426;51.454;7.266;2023-08-17T04:12:37;100384.63;;;16.97;100.00
77360;BME280;66426;51.454;7.266;2023-08-17T04:13:38;100383.44;;;17.01;100.00
77360;BME280;66426;51.454;7.266;2023-08-17T04:14:38;100382.13;;;16.94;100.00
77360;BME280;66426;51.454;7.266;2023-08-17T04:15:39;100385.53;;;16.85;100.00
77360;BME280;66426;51.454;7.266;2023-08-17T04:16:40;100386.16;;;17.01;100.00
77360;BME280;66426;51.454;7.266;2023-08-17T04:17:40;100387.16;;;17.00;100.00
77360;BME280;66426;51.454;7.266;2023-08-17T04:18:41;100393.31;;;17.15;100.00
77360;BME280;66426;51.454;7.266;2023-08-17T04:19:42;100391.22;;;17.18;100.00
77360;BME280;66426;51.454;7.266;2023-08-17T04:20:43;100384.59;;;17.10;100.00
77360;BME280;66426;51.454;7.266;2023-08-17T04:21:43;100380.22;;;17.07;100.00
77360;BME280;66426;51.454;7.266;2023-08-17T04:22:44;100386.19;;;17.12;100.00
77360;BME280;66426;51.454;7.266;2023-08-17T04:23:45;100386.91;;;17.03;100.00
77360;BME280;66426;51.454;7.266;2023-08-17T04:24:45;100394.22;;;17.02;100.00
77360;BME280;66426;51.454;7.266;2023-08-17T04:25:46;100389.09;;;16.98;100.00
77360;BME280;66426;51.454;7.266;2023-08-17T04:26:48;100390.72;;;17.00;100.00
77360;BME280;66426;51.454;7.266;2023-08-17T04:27:49;100384.22;;;16.90;100.00
77360;BME280;66426;51.454;7.266;2023-08-17T04:28:50;100394.94;;;17.04;100.00
77360;BME280;66426;51.454;7.266;2023-08-17T04:29:50;100391.50;;;17.02;100.00
77360;BME280;66426;51.454;7.266;2023-08-17T04:30:51;100400.94;;;16.97;100.00
77360;BME280;66426;51.454;7.266;2023-08-17T04:31:52;100399.72;;;17.14;100.00
77360;BME280;66426;51.454;7.266;2023-08-17T04:32:53;100393.16;;;17.16;100.00
77360;BME280;66426;51.454;7.266;2023-08-17T04:33:54;100395.25;;;17.13;100.00
77360;BME280;66426;51.454;7.266;2023-08-17T04:34:55;100397.56;;;17.06;100.00
77360;BME280;66426;51.454;7.266;2023-08-17T04:35:55;100399.13;;;16.85;100.00
77360;BME280;66426;51.454;7.266;2023-08-17T04:36:56;100399.78;;;16.88;100.00
77360;BME280;66426;51.454;7.266;2023-08-17T04:37:57;100404.00;;;16.92;100.00
77360;BME280;66426;51.454;7.266;2023-08-17T04:38:58;100402.47;;;17.01;100.00
77360;BME280;66426;51.454;7.266;2023-08-17T04:39:58;100405.75;;;16.93;100.00
77360;BME280;66426;51.454;7.266;2023-08-17T04:40:59;100404.47;;;16.86;100.00
77360;BME280;66426;51.454;7.266;2023-08-17T04:42:01;100399.66;;;17.02;100.00
77360;BME280;66426;51.454;7.266;2023-08-17T04:43:03;100408.72;;;16.90;100.00
77360;BME280;66426;51.454;7.266;2023-08-17T04:44:04;100403.69;;;16.97;100.00
77360;BME280;66426;51.454;7.266;2023-08-17T04:45:05;100398.00;;;17.13;100.00
77360;BME280;66426;51.454;7.266;2023-08-17T04:46:06;100400.63;;;17.01;100.00
77360;BME280;66426;51.454;7.266;2023-08-17T04:47:06;100402.16;;;17.06;100.00
77360;BME280;66426;51.454;7.266;2023-08-17T04:48:07;100398.66;;;17.03;100.00
77360;BME280;66426;51.454;7.266;2023-08-17T04:49:08;100401.69;;;17.12;100.00
77360;BME280;66426;51.454;7.266;2023-08-17T04:50:09;100398.13;;;16.98;100.00
77360;BME280;66426;51.454;7.266;2023-08-17T04:51:09;100401.22;;;16.68;100.00
77360;BME280;66426;51.454;7.266;2023-08-17T04:52:10;100393.47;;;16.75;100.00
77360;BME280;66426;51.454;7.266;2023-08-17T04:53:11;100400.88;;;16.86;100.00
77360;BME280;66426;51.454;7.266;2023-08-17T04:54:12;100397.69;;;16.92;100.00
77360;BME280;66426;51.454;7.266;2023-08-17T04:55:12;100400.66;;;16.89;100.00
77360;BME280;66426;51.454;7.266;2023-08-17T04:56:13;100399.59;;;16.78;100.00
77360;BME280;66426;51.454;7.266;2023-08-17T04:57:15;100411.09;;;16.82;100.00
77360;BME280;66426;51.454;7.266;2023-08-17T04:58:16;100404.81;;;16.81;100.00
77360;BME280;66426;51.454;7.266;2023-08-17T04:59:17;100407.19;;;16.86;100.00
77360;BME280;66426;51.454;7.266;2023-08-17T05:00:18;100404.25;;;16.89;100.00
77360;BME280;66426;51.454;7.266;2023-08-17T05:01:20;100403.91;;;16.94;100.00
77360;BME280;66426;51.454;7.266;2023-08-17T05:02:21;100407.28;;;16.97;100.00
77360;BME280;66426;51.454;7.266;2023-08-17T05:03:22;100402.94;;;16.82;100.00
77360;BME280;66426;51.454;7.266;2023-08-17T05:04:22;100403.91;;;16.94;100.00
77360;BME280;66426;51.454;7.266;2023-08-17T05:05:23;100396.41;;;16.97;100.00
77360;BME280;66426;51.454;7.266;2023-08-17T05:06:24;100403.38;;;16.89;100.00
77360;BME280;66426;51.454;7.266;2023-08-17T05:07:25;100410.53;;;16.90;100.00
77360;BME280;66426;51.454;7.266;2023-08-17T05:08:25;100408.50;;;16.93;100.00
77360;BME280;66426;51.454;7.266;2023-08-17T05:09:27;100405.19;;;17.01;100.00
77360;BME280;66426;51.454;7.266;2023-08-17T05:10:28;100407.72;;;16.91;100.00
77360;BME280;66426;51.454;7.266;2023-08-17T05:11:28;100403.84;;;16.83;100.00
77360;BME280;66426;51.454;7.266;2023-08-17T05:12:30;100407.28;;;16.85;100.00
77360;BME280;66426;51.454;7.266;2023-08-17T05:13:31;100406.09;;;16.76;100.00
77360;BME280;66426;51.454;7.266;2023-08-17T05:14:32;100401.97;;;16.83;100.00
77360;BME280;66426;51.454;7.266;2023-08-17T05:15:32;100406.53;;;16.95;100.00